sensor_id;sensor_type;location;lat;lon;timestamp;pressure;altitude;pressure_sealevel;temperature
71163;BMP280;58858;50.948;6.566;2022-09-09T00:02:22;99972.69;;;14.49
71163;BMP280;58858;50.948;6.566;2022-09-09T00:12:34;99955.22;;;14.56
71163;BMP280;58858;50.948;6.566;2022-09-09T00:22:40;99960.47;;;14.73
71163;BMP280;58858;50.948;6.566;2022-09-09T00:32:46;99936.84;;;14.49
71163;BMP280;58858;50.948;6.566;2022-09-09T00:42:52;99928.59;;;14.29
71163;BMP280;58858;50.948;6.566;2022-09-09T01:03:37;99931.34;;;14.08
71163;BMP280;58858;50.948;6.566;2022-09-09T01:13:41;99921.19;;;14.11
71163;BMP280;58858;50.948;6.566;2022-09-09T01:34:13;99930.97;;;14.02
71163;BMP280;58858;50.948;6.566;2022-09-09T01:44:15;99929.59;;;13.92
71163;BMP280;58858;50.948;6.566;2022-09-09T01:54:20;99933.66;;;13.91
71163;BMP280;58858;50.948;6.566;2022-09-09T02:04:38;99925.38;;;13.91
71163;BMP280;58858;50.948;6.566;2022-09-09T02:15:00;99902.78;;;13.83
71163;BMP280;58858;50.948;6.566;2022-09-09T02:25:13;99925.97;;;13.90
71163;BMP280;58858;50.948;6.566;2022-09-09T02:35:19;99915.63;;;14.00
71163;BMP280;58858;50.948;6.566;2022-09-09T02:45:26;99922.38;;;14.08
71163;BMP280;58858;50.948;6.566;2022-09-09T03:05:55;99914.63;;;14.16
71163;BMP280;58858;50.948;6.566;2022-09-09T03:15:57;99913.22;;;14.15
71163;BMP280;58858;50.948;6.566;2022-09-09T03:26:00;99919.97;;;13.73
71163;BMP280;58858;50.948;6.566;2022-09-09T03:36:11;99933.25;;;13.76
71163;BMP280;58858;50.948;6.566;2022-09-09T03:46:12;99920.81;;;13.75
71163;BMP280;58858;50.948;6.566;2022-09-09T03:56:14;99920.34;;;13.88
71163;BMP280;58858;50.948;6.566;2022-09-09T04:06:15;99912.34;;;13.92
71163;BMP280;58858;50.948;6.566;2022-09-09T04:16:20;99928.94;;;14.03
71163;BMP280;58858;50.948;6.566;2022-09-09T04:26:22;99915.53;;;14.09
71163;BMP280;58858;50.948;6.566;2022-09-09T04:36:23;99912.22;;;14.10
71163;BMP280;58858;50.948;6.566;2022-09-09T04:46:28;99906.88;;;14.23
71163;BMP280;58858;50.948;6.566;2022-09-09T04:56:31;99897.25;;;14.34
71163;BMP280;58858;50.948;6.566;2022-09-09T05:06:33;99899.38;;;14.35
71163;BMP280;58858;50.948;6.566;2022-09-09T05:16:36;99904.25;;;14.46
71163;BMP280;58858;50.948;6.566;2022-09-09T05:26:37;99913.28;;;14.58
71163;BMP280;58858;50.948;6.566;2022-09-09T05:36:38;99929.03;;;14.66
71163;BMP280;58858;50.948;6.566;2022-09-09T05:46:39;99912.88;;;14.72
71163;BMP280;58858;50.948;6.566;2022-09-09T05:56:41;99906.97;;;14.66
71163;BMP280;58858;50.948;6.566;2022-09-09T06:06:42;99923.50;;;14.66
71163;BMP280;58858;50.948;6.566;2022-09-09T06:16:50;99935.66;;;14.73
71163;BMP280;58858;50.948;6.566;2022-09-09T06:26:55;99904.25;;;15.32
71163;BMP280;58858;50.948;6.566;2022-09-09T06:37:01;99884.75;;;16.44
71163;BMP280;58858;50.948;6.566;2022-09-09T06:47:09;99841.16;;;17.30
71163;BMP280;58858;50.948;6.566;2022-09-09T06:57:12;99837.06;;;17.58
71163;BMP280;58858;50.948;6.566;2022-09-09T07:07:13;99810.38;;;18.47
71163;BMP280;58858;50.948;6.566;2022-09-09T07:17:16;99854.16;;;19.22
71163;BMP280;58858;50.948;6.566;2022-09-09T07:27:17;99863.59;;;19.45
71163;BMP280;58858;50.948;6.566;2022-09-09T07:37:20;99915.16;;;19.05
71163;BMP280;58858;50.948;6.566;2022-09-09T07:47:22;99966.53;;;18.62
71163;BMP280;58858;50.948;6.566;2022-09-09T07:57:25;99948.16;;;18.42
71163;BMP280;58858;50.948;6.566;2022-09-09T08:07:28;99960.13;;;18.18
71163;BMP280;58858;50.948;6.566;2022-09-09T08:17:30;99965.59;;;18.71
71163;BMP280;58858;50.948;6.566;2022-09-09T08:27:33;99955.78;;;18.29
71163;BMP280;58858;50.948;6.566;2022-09-09T08:37:35;99915.53;;;18.14
71163;BMP280;58858;50.948;6.566;2022-09-09T08:57:53;100003.66;;;18.16
71163;BMP280;58858;50.948;6.566;2022-09-09T09:08:17;100018.47;;;18.20
71163;BMP280;58858;50.948;6.566;2022-09-09T09:18:22;100017.00;;;18.46
71163;BMP280;58858;50.948;6.566;2022-09-09T09:28:27;99948.69;;;18.39
71163;BMP280;58858;50.948;6.566;2022-09-09T09:38:36;100008.88;;;18.50
71163;BMP280;58858;50.948;6.566;2022-09-09T09:48:39;99991.19;;;18.70
71163;BMP280;58858;50.948;6.566;2022-09-09T10:08:49;99971.16;;;19.14
71163;BMP280;58858;50.948;6.566;2022-09-09T10:59:44;100040.72;;;18.49
71163;BMP280;58858;50.948;6.566;2022-09-09T11:09:52;99919.09;;;19.00
71163;BMP280;58858;50.948;6.566;2022-09-09T11:19:56;99947.38;;;18.96
71163;BMP280;58858;50.948;6.566;2022-09-09T11:30:15;99988.94;;;18.53
71163;BMP280;58858;50.948;6.566;2022-09-09T11:40:27;100020.66;;;18.76
71163;BMP280;58858;50.948;6.566;2022-09-09T11:50:35;100009.81;;;18.95
71163;BMP280;58858;50.948;6.566;2022-09-09T12:00:45;99963.41;;;19.41
71163;BMP280;58858;50.948;6.566;2022-09-09T12:11:07;99960.16;;;19.16
71163;BMP280;58858;50.948;6.566;2022-09-09T12:41:53;100021.44;;;18.92
71163;BMP280;58858;50.948;6.566;2022-09-09T12:51:57;99961.63;;;19.47
71163;BMP280;58858;50.948;6.566;2022-09-09T13:02:00;99941.84;;;19.40
71163;BMP280;58858;50.948;6.566;2022-09-09T13:12:02;99925.44;;;19.30
71163;BMP280;58858;50.948;6.566;2022-09-09T13:22:13;99891.63;;;19.51
71163;BMP280;58858;50.948;6.566;2022-09-09T13:32:18;99858.78;;;19.78
71163;BMP280;58858;50.948;6.566;2022-09-09T13:42:25;99849.38;;;20.51
71163;BMP280;58858;50.948;6.566;2022-09-09T13:52:31;99831.56;;;21.11
71163;BMP280;58858;50.948;6.566;2022-09-09T14:02:32;99872.91;;;20.31
71163;BMP280;58858;50.948;6.566;2022-09-09T14:12:34;99916.66;;;19.36
71163;BMP280;58858;50.948;6.566;2022-09-09T14:22:37;100057.66;;;18.81
71163;BMP280;58858;50.948;6.566;2022-09-09T14:32:39;100016.31;;;19.43
71163;BMP280;58858;50.948;6.566;2022-09-09T14:42:40;99986.00;;;19.34
71163;BMP280;58858;50.948;6.566;2022-09-09T14:52:42;99952.94;;;19.85
71163;BMP280;58858;50.948;6.566;2022-09-09T15:02:43;99946.75;;;19.56
71163;BMP280;58858;50.948;6.566;2022-09-09T15:12:44;99921.38;;;19.18
71163;BMP280;58858;50.948;6.566;2022-09-09T15:22:45;99913.16;;;19.35
71163;BMP280;58858;50.948;6.566;2022-09-09T15:32:46;99937.63;;;19.39
71163;BMP280;58858;50.948;6.566;2022-09-09T15:42:47;99918.34;;;19.27
71163;BMP280;58858;50.948;6.566;2022-09-09T15:52:49;99992.16;;;18.21
71163;BMP280;58858;50.948;6.566;2022-09-09T16:02:50;100039.50;;;18.12
71163;BMP280;58858;50.948;6.566;2022-09-09T16:12:51;100018.13;;;18.14
71163;BMP280;58858;50.948;6.566;2022-09-09T16:22:52;99979.13;;;17.97
71163;BMP280;58858;50.948;6.566;2022-09-09T16:32:53;99975.09;;;17.87
71163;BMP280;58858;50.948;6.566;2022-09-09T16:42:54;99960.50;;;17.74
71163;BMP280;58858;50.948;6.566;2022-09-09T16:52:55;99948.03;;;17.86
71163;BMP280;58858;50.948;6.566;2022-09-09T17:02:56;99965.41;;;17.62
71163;BMP280;58858;50.948;6.566;2022-09-09T17:12:57;99986.41;;;17.40
71163;BMP280;58858;50.948;6.566;2022-09-09T17:22:58;99992.47;;;17.13
71163;BMP280;58858;50.948;6.566;2022-09-09T17:33:00;99991.63;;;16.86
71163;BMP280;58858;50.948;6.566;2022-09-09T17:43:01;100034.25;;;16.70
71163;BMP280;58858;50.948;6.566;2022-09-09T17:53:02;100068.19;;;16.48
71163;BMP280;58858;50.948;6.566;2022-09-09T18:03:03;100064.28;;;16.40
71163;BMP280;58858;50.948;6.566;2022-09-09T18:13:04;100075.19;;;16.15
71163;BMP280;58858;50.948;6.566;2022-09-09T18:23:06;100084.56;;;16.10
71163;BMP280;58858;50.948;6.566;2022-09-09T18:33:07;100071.78;;;15.83
71163;BMP280;58858;50.948;6.566;2022-09-09T18:43:09;100093.63;;;15.68
71163;BMP280;58858;50.948;6.566;2022-09-09T18:53:12;100084.19;;;15.51
71163;BMP280;58858;50.948;6.566;2022-09-09T19:03:15;100075.31;;;15.41
71163;BMP280;58858;50.948;6.566;2022-09-09T19:13:17;100084.28;;;15.41
71163;BMP280;58858;50.948;6.566;2022-09-09T19:23:21;100082.72;;;15.38
71163;BMP280;58858;50.948;6.566;2022-09-09T19:33:23;100087.69;;;15.19
71163;BMP280;58858;50.948;6.566;2022-09-09T19:43:24;100089.00;;;15.18
71163;BMP280;58858;50.948;6.566;2022-09-09T19:53:25;100106.94;;;15.08
71163;BMP280;58858;50.948;6.566;2022-09-09T20:03:26;100082.94;;;14.79
71163;BMP280;58858;50.948;6.566;2022-09-09T20:13:30;100114.78;;;14.91
71163;BMP280;58858;50.948;6.566;2022-09-09T20:23:31;100123.66;;;14.90
71163;BMP280;58858;50.948;6.566;2022-09-09T20:33:34;100128.16;;;14.65
71163;BMP280;58858;50.948;6.566;2022-09-09T20:43:35;100148.44;;;14.69
71163;BMP280;58858;50.948;6.566;2022-09-09T20:53:37;100133.75;;;14.76
71163;BMP280;58858;50.948;6.566;2022-09-09T21:03:38;100132.25;;;14.84
71163;BMP280;58858;50.948;6.566;2022-09-09T21:13:40;100128.00;;;14.93
71163;BMP280;58858;50.948;6.566;2022-09-09T21:23:41;100117.94;;;14.97
71163;BMP280;58858;50.948;6.566;2022-09-09T21:33:42;100102.09;;;14.77
71163;BMP280;58858;50.948;6.566;2022-09-09T21:43:45;100099.09;;;14.73
71163;BMP280;58858;50.948;6.566;2022-09-09T21:53:46;100122.38;;;14.81
71163;BMP280;58858;50.948;6.566;2022-09-09T22:03:47;100113.63;;;14.64
71163;BMP280;58858;50.948;6.566;2022-09-09T22:13:48;100096.28;;;14.53
71163;BMP280;58858;50.948;6.566;2022-09-09T22:23:54;100129.88;;;14.40
71163;BMP280;58858;50.948;6.566;2022-09-09T22:33:56;100106.31;;;14.28
71163;BMP280;58858;50.948;6.566;2022-09-09T22:43:57;100126.84;;;14.36
71163;BMP280;58858;50.948;6.566;2022-09-09T22:53:59;100123.97;;;14.34
71163;BMP280;58858;50.948;6.566;2022-09-09T23:04:00;100118.00;;;14.08
71163;BMP280;58858;50.948;6.566;2022-09-09T23:14:04;100134.88;;;14.23
71163;BMP280;58858;50.948;6.566;2022-09-09T23:24:08;100124.47;;;14.22
71163;BMP280;58858;50.948;6.566;2022-09-09T23:34:11;100123.91;;;14.14
71163;BMP280;58858;50.948;6.566;2022-09-09T23:44:12;100117.28;;;13.98
71163;BMP280;58858;50.948;6.566;2022-09-09T23:54:14;100104.56;;;13.84
